Time;durP1;ratioP1;P1;durP2;ratioP2;P2;SDS_P1;SDS_P2;PMS_P1;PMS_P2;Temp;Humidity;BMP_temperature;BMP_pressure;BME280_temperature;BME280_humidity;BME280_pressure;Samples;Min_cycle;Max_cycle;Signal;HPM_P1;HPM_P2
2022/07/28 00:02:03;;;;;;;4.80;3.00;;;24.70;54.10;;;;;;5002569;28;20022;-46
2022/07/28 00:04:29;;;;;;;3.78;2.50;;;24.70;54.10;;;;;;5003139;28;20072;-46
2022/07/28 00:06:55;;;;;;;3.47;2.35;;;24.70;54.10;;;;;;5003300;28;20489;-45
2022/07/28 00:09:21;;;;;;;3.60;2.25;;;24.70;54.10;;;;;;5003591;28;20030;-48
2022/07/28 00:11:46;;;;;;;4.00;2.85;;;24.70;54.20;;;;;;5001941;28;20065;-48
2022/07/28 00:14:12;;;;;;;3.33;2.25;;;24.70;54.30;;;;;;5003874;28;20041;-46
2022/07/28 00:16:38;;;;;;;3.70;2.40;;;24.70;54.30;;;;;;5003478;28;20038;-48
2022/07/28 00:19:03;;;;;;;4.53;2.75;;;24.70;54.10;;;;;;5003527;28;20792;-46
2022/07/28 00:21:29;;;;;;;4.47;2.97;;;24.80;54.10;;;;;;5003716;28;20029;-46
2022/07/28 00:23:55;;;;;;;3.85;2.28;;;24.70;53.80;;;;;;5003329;28;20072;-46
2022/07/28 00:26:22;;;;;;;3.83;2.30;;;24.70;53.80;;;;;;5002021;28;20097;-46
2022/07/28 00:28:48;;;;;;;5.18;2.42;;;24.70;53.70;;;;;;5003571;28;20454;-49
2022/07/28 00:31:13;;;;;;;4.55;2.60;;;24.60;53.60;;;;;;5004569;28;20076;-47
2022/07/28 00:33:40;;;;;;;4.03;2.38;;;24.60;53.80;;;;;;5003788;28;20030;-47
2022/07/28 00:36:07;;;;;;;3.67;2.65;;;24.50;53.80;;;;;;5003233;28;20087;-48
2022/07/28 00:38:33;;;;;;;4.90;2.85;;;24.50;53.80;;;;;;5012722;28;20080;-47
2022/07/28 00:41:11;;;;;;;4.00;3.03;;;24.50;54.10;;;;;;5014080;28;20783;-48
2022/07/28 00:43:37;;;;;;;5.05;3.03;;;24.50;54.10;;;;;;5004045;28;20052;-47
2022/07/28 00:46:03;;;;;;;3.70;2.40;;;24.50;54.00;;;;;;5002840;28;20042;-48
2022/07/28 00:48:29;;;;;;;3.92;2.42;;;24.50;54.00;;;;;;5004151;28;20037;-47
2022/07/28 00:50:55;;;;;;;3.92;2.45;;;24.50;54.70;;;;;;5003871;28;20018;-47
2022/07/28 00:53:22;;;;;;;3.95;2.22;;;24.50;54.10;;;;;;5003483;28;20026;-48
2022/07/28 00:55:47;;;;;;;3.72;2.30;;;24.50;54.10;;;;;;5003130;28;20053;-48
2022/07/28 00:58:13;;;;;;;3.92;2.50;;;24.50;54.20;;;;;;5003776;28;20620;-48
2022/07/28 01:00:39;;;;;;;4.80;2.28;;;24.50;54.10;;;;;;5002426;28;20029;-47
2022/07/28 01:03:05;;;;;;;3.60;2.33;;;24.50;54.10;;;;;;5003214;28;20026;-47
2022/07/28 01:05:54;;;;;;;4.15;2.25;;;24.50;54.00;;;;;;5002703;28;20029;-49
2022/07/28 01:09:05;;;;;;;5.85;2.47;;;24.50;53.90;;;;;;4981859;28;20038;-48
2022/07/28 01:11:42;;;;;;;2.97;1.98;;;24.50;54.00;;;;;;4930775;29;20224;-47
2022/07/28 01:14:14;;;;;;;3.28;2.15;;;24.50;54.00;;;;;;4930869;29;20031;-48
2022/07/28 01:16:55;;;;;;;3.22;1.95;;;24.50;53.90;;;;;;4976883;28;20049;-49
2022/07/28 01:19:36;;;;;;;3.45;2.10;;;24.50;53.80;;;;;;5026530;28;20026;-48
2022/07/28 01:22:04;;;;;;;4.50;2.40;;;24.50;53.80;;;;;;5001847;28;20030;-48
2022/07/28 01:24:38;;;;;;;3.90;2.30;;;24.50;53.60;;;;;;5003091;28;20026;-48
2022/07/28 01:27:09;;;;;;;3.50;2.20;;;24.50;53.50;;;;;;5002503;28;20072;-48
2022/07/28 01:30:07;;;;;;;3.83;2.13;;;24.40;53.50;;;;;;5003175;28;20605;-47
2022/07/28 01:32:42;;;;;;;3.83;2.22;;;24.40;53.50;;;;;;5003219;28;20654;-47
2022/07/28 01:35:23;;;;;;;3.55;2.15;;;24.40;53.50;;;;;;5001435;28;20034;-47
2022/07/28 01:37:54;;;;;;;3.60;2.15;;;24.40;53.50;;;;;;5000751;28;20053;-47
2022/07/28 01:40:24;;;;;;;3.25;2.03;;;24.40;53.50;;;;;;5001107;28;20030;-53
2022/07/28 01:42:55;;;;;;;3.42;2.00;;;24.40;53.40;;;;;;5001877;28;20030;-47
2022/07/28 01:45:22;;;;;;;3.67;2.42;;;24.40;53.40;;;;;;5001805;28;20081;-47
2022/07/28 01:47:48;;;;;;;3.40;2.17;;;24.40;53.10;;;;;;5002364;28;20484;-48
2022/07/28 01:50:16;;;;;;;4.03;1.90;;;24.40;53.20;;;;;;5017988;28;20628;-47
2022/07/28 01:52:45;;;;;;;3.55;2.20;;;24.40;53.20;;;;;;5003071;28;20442;-47
2022/07/28 01:55:12;;;;;;;3.13;2.13;;;24.30;52.80;;;;;;5002474;28;20033;-48
2022/07/28 01:57:39;;;;;;;3.38;2.00;;;24.30;53.20;;;;;;5003000;28;20044;-49
2022/07/28 02:00:09;;;;;;;4.85;2.30;;;24.40;53.20;;;;;;5006637;28;20018;-48
2022/07/28 02:02:36;;;;;;;4.22;2.05;;;24.30;53.10;;;;;;5006772;28;20030;-47
2022/07/28 02:05:04;;;;;;;3.47;1.83;;;24.30;53.20;;;;;;5006352;28;20710;-48
2022/07/28 02:07:31;;;;;;;3.35;2.33;;;24.30;53.20;;;;;;5008090;28;20033;-47
2022/07/28 02:09:59;;;;;;;4.15;2.30;;;24.30;52.90;;;;;;5025293;28;20461;-48
2022/07/28 02:12:26;;;;;;;3.78;2.05;;;24.20;52.60;;;;;;5006507;28;20091;-49
2022/07/28 02:14:53;;;;;;;3.28;2.00;;;24.20;52.60;;;;;;5002781;28;20064;-46
2022/07/28 02:17:24;;;;;;;3.10;1.85;;;24.10;53.20;;;;;;5004978;28;20478;-49
2022/07/28 02:19:51;;;;;;;4.10;2.28;;;24.10;53.20;;;;;;5005924;28;20037;-48
2022/07/28 02:22:19;;;;;;;3.92;2.38;;;24.10;53.20;;;;;;5006170;28;20088;-47
2022/07/28 02:24:46;;;;;;;3.30;2.13;;;24.10;53.20;;;;;;5006376;28;20057;-48
2022/07/28 02:27:27;;;;;;;3.88;2.35;;;24.10;53.10;;;;;;5006429;28;20034;-48
2022/07/28 02:30:02;;;;;;;3.15;2.15;;;24.10;53.20;;;;;;5005172;28;20140;-47
2022/07/28 02:32:31;;;;;;;3.33;2.10;;;24.10;53.30;;;;;;5005443;28;20065;-47
2022/07/28 02:35:26;;;;;;;3.50;1.77;;;24.10;53.30;;;;;;5005248;28;20033;-48
2022/07/28 02:37:58;;;;;;;3.28;1.90;;;24.10;53.40;;;;;;4996510;28;20525;-48
2022/07/28 02:40:33;;;;;;;3.37;1.87;;;24.10;53.30;;;;;;5005810;28;20079;-48
2022/07/28 02:43:00;;;;;;;2.35;1.55;;;24.10;53.20;;;;;;5006030;28;20081;-47
2022/07/28 02:45:27;;;;;;;3.85;2.00;;;24.10;53.20;;;;;;5005010;28;20041;-48
2022/07/28 02:47:59;;;;;;;4.22;2.03;;;24.10;53.10;;;;;;5006567;28;20030;-48
2022/07/28 02:50:27;;;;;;;4.10;2.00;;;24.20;53.00;;;;;;5005786;28;20699;-47
2022/07/28 02:52:57;;;;;;;4.05;2.40;;;24.20;52.80;;;;;;5006133;28;20030;-47
2022/07/28 02:55:24;;;;;;;4.28;2.28;;;24.20;52.80;;;;;;5003445;28;20607;-47
2022/07/28 02:57:50;;;;;;;4.32;2.30;;;24.10;52.20;;;;;;5003736;28;20040;-48
2022/07/28 03:00:16;;;;;;;4.35;2.30;;;24.10;52.50;;;;;;5005726;28;20030;-49
2022/07/28 03:02:45;;;;;;;4.25;2.30;;;24.10;52.60;;;;;;5005064;28;20037;-47
2022/07/28 03:05:15;;;;;;;3.03;2.00;;;24.00;52.50;;;;;;5005707;28;20026;-47
2022/07/28 03:07:42;;;;;;;3.55;1.65;;;24.00;52.80;;;;;;5008121;28;20021;-48
2022/07/28 03:10:17;;;;;;;5.22;2.60;;;23.90;52.80;;;;;;5023627;28;20037;-50
2022/07/28 03:12:43;;;;;;;4.15;2.22;;;23.90;52.20;;;;;;4984053;28;20031;-52
2022/07/28 03:15:09;;;;;;;3.85;2.20;;;23.90;52.60;;;;;;4985117;28;20120;-47
2022/07/28 03:17:34;;;;;;;3.83;2.15;;;23.90;52.80;;;;;;4985888;28;20698;-47
2022/07/28 03:20:00;;;;;;;4.38;2.20;;;23.90;52.70;;;;;;4998412;28;20083;-49
2022/07/28 03:22:26;;;;;;;5.00;2.15;;;23.90;52.80;;;;;;5003910;28;20522;-49
2022/07/28 03:24:55;;;;;;;3.60;1.73;;;23.90;52.60;;;;;;5004428;28;20022;-49
2022/07/28 03:27:26;;;;;;;3.25;1.95;;;23.90;52.60;;;;;;5004574;28;20042;-48
2022/07/28 03:29:57;;;;;;;4.32;2.17;;;24.00;52.70;;;;;;5001068;28;20026;-48
2022/07/28 03:32:24;;;;;;;3.70;2.15;;;23.90;52.60;;;;;;5001631;28;20057;-49
2022/07/28 03:34:51;;;;;;;4.22;2.13;;;23.90;52.40;;;;;;5004402;28;20042;-49
2022/07/28 03:37:24;;;;;;;3.95;2.03;;;23.90;52.00;;;;;;5003903;28;20704;-48
2022/07/28 03:39:52;;;;;;;3.33;2.00;;;23.90;52.50;;;;;;4985065;28;20057;-47
2022/07/28 03:42:19;;;;;;;3.22;1.83;;;23.90;52.40;;;;;;5000008;28;20521;-48
2022/07/28 03:44:46;;;;;;;3.88;1.95;;;23.90;53.10;;;;;;5004742;28;20097;-48
2022/07/28 03:47:13;;;;;;;5.60;2.25;;;23.90;52.40;;;;;;5004534;28;20025;-47
2022/07/28 03:49:39;;;;;;;4.47;2.20;;;23.90;52.30;;;;;;5004729;28;20025;-48
2022/07/28 03:52:05;;;;;;;3.20;1.88;;;23.90;52.40;;;;;;5019166;28;20044;-47
2022/07/28 03:54:30;;;;;;;4.43;2.25;;;23.90;52.30;;;;;;5004894;28;20064;-48
2022/07/28 03:56:56;;;;;;;2.88;1.63;;;23.90;52.40;;;;;;5004388;28;20049;-49
2022/07/28 03:59:22;;;;;;;2.83;1.63;;;23.90;52.50;;;;;;5004728;28;20033;-49
2022/07/28 04:01:48;;;;;;;4.00;1.80;;;23.90;52.30;;;;;;5004631;28;20057;-48
2022/07/28 04:04:14;;;;;;;2.97;1.70;;;23.90;52.40;;;;;;5004312;28;20041;-49
2022/07/28 04:06:39;;;;;;;3.72;2.08;;;23.90;52.20;;;;;;5002707;28;20040;-48
2022/07/28 04:09:05;;;;;;;5.50;2.10;;;24.00;52.20;;;;;;5006662;28;20133;-48
2022/07/28 04:11:31;;;;;;;3.03;1.80;;;24.00;51.60;;;;;;5004103;28;20095;-48
2022/07/28 04:13:56;;;;;;;3.28;1.80;;;24.00;52.10;;;;;;5003751;28;20054;-49
2022/07/28 04:16:23;;;;;;;3.50;1.77;;;23.90;51.70;;;;;;5003253;28;20045;-49
2022/07/28 04:18:49;;;;;;;3.30;2.00;;;23.90;51.50;;;;;;5003542;28;20022;-47
2022/07/28 04:21:15;;;;;;;3.67;2.00;;;23.80;50.70;;;;;;5001944;28;20713;-49
2022/07/28 04:23:40;;;;;;;3.70;2.05;;;23.80;51.70;;;;;;5003745;28;20535;-48
2022/07/28 04:26:07;;;;;;;3.90;1.88;;;23.70;52.00;;;;;;5003268;28;20022;-47
2022/07/28 04:28:33;;;;;;;3.60;1.95;;;23.80;51.90;;;;;;5003883;28;20022;-50
2022/07/28 04:30:58;;;;;;;3.50;1.75;;;23.80;51.70;;;;;;5003824;28;20056;-47
2022/07/28 04:33:24;;;;;;;4.13;1.90;;;23.80;51.70;;;;;;5003828;28;20103;-48
2022/07/28 04:35:51;;;;;;;4.47;1.90;;;23.80;51.60;;;;;;5002590;28;20041;-47
2022/07/28 04:38:19;;;;;;;3.95;1.63;;;23.80;51.20;;;;;;5002388;28;20034;-49
2022/07/28 04:40:48;;;;;;;2.85;1.30;;;23.70;51.60;;;;;;5003047;28;20048;-47
2022/07/28 04:43:13;;;;;;;2.72;1.45;;;23.70;51.70;;;;;;5003160;28;20083;-48
2022/07/28 04:45:39;;;;;;;3.38;1.60;;;23.70;51.40;;;;;;5003058;28;20444;-48
2022/07/28 04:48:05;;;;;;;2.15;1.20;;;23.70;51.60;;;;;;5003328;28;20084;-48
2022/07/28 04:50:31;;;;;;;2.78;1.25;;;23.70;51.70;;;;;;5003357;28;20426;-48
2022/07/28 04:52:57;;;;;;;3.45;1.95;;;23.70;51.70;;;;;;5002741;28;20026;-48
2022/07/28 04:55:24;;;;;;;3.20;1.70;;;23.70;51.50;;;;;;5002086;28;20061;-48
2022/07/28 04:57:50;;;;;;;3.72;1.50;;;23.70;51.60;;;;;;5002877;28;20034;-48
2022/07/28 05:00:16;;;;;;;2.65;1.35;;;23.70;51.70;;;;;;5003581;28;20088;-48
2022/07/28 05:02:43;;;;;;;3.05;1.40;;;23.80;51.60;;;;;;5002630;28;20022;-48
2022/07/28 05:05:10;;;;;;;2.92;1.60;;;23.80;51.80;;;;;;5002056;28;20022;-47
2022/07/28 05:07:37;;;;;;;2.88;1.42;;;23.80;51.70;;;;;;5005185;28;20702;-49
2022/07/28 05:10:05;;;;;;;3.20;1.35;;;23.80;51.70;;;;;;5022581;28;20030;-47
2022/07/28 05:12:30;;;;;;;4.35;1.90;;;23.80;51.30;;;;;;5006189;28;20026;-49
2022/07/28 05:14:56;;;;;;;6.10;2.13;;;23.70;50.90;;;;;;5002425;28;20048;-48
2022/07/28 05:17:22;;;;;;;3.30;1.92;;;23.70;51.50;;;;;;4993111;28;20026;-48
2022/07/28 05:19:47;;;;;;;4.07;1.85;;;23.70;51.10;;;;;;5002562;28;20442;-49
2022/07/28 05:22:13;;;;;;;3.67;1.55;;;23.60;51.20;;;;;;5001401;28;20026;-48
2022/07/28 05:24:39;;;;;;;4.30;2.15;;;23.60;51.60;;;;;;5000161;28;20022;-50
2022/07/28 05:27:04;;;;;;;3.13;1.42;;;23.60;51.90;;;;;;4999204;28;20506;-48
2022/07/28 05:29:30;;;;;;;3.90;1.95;;;23.60;52.10;;;;;;5001798;28;20033;-48
2022/07/28 05:31:56;;;;;;;4.28;1.83;;;23.60;52.30;;;;;;5002039;28;20534;-48
2022/07/28 05:34:21;;;;;;;3.55;1.58;;;23.70;52.10;;;;;;5005969;28;20691;-47
2022/07/28 05:36:47;;;;;;;3.95;1.92;;;23.70;52.30;;;;;;5006205;28;20049;-47
2022/07/28 05:39:14;;;;;;;4.03;2.05;;;23.70;52.20;;;;;;5029569;28;20088;-47
2022/07/28 05:41:39;;;;;;;3.50;1.77;;;23.70;51.90;;;;;;5000909;28;20037;-47
2022/07/28 05:44:05;;;;;;;4.35;1.95;;;23.70;52.20;;;;;;5005747;28;20014;-48
2022/07/28 05:46:31;;;;;;;3.65;1.73;;;23.70;52.10;;;;;;5006322;28;20018;-47
2022/07/28 05:48:57;;;;;;;5.75;2.50;;;23.80;52.00;;;;;;5003913;28;20093;-49
2022/07/28 05:51:23;;;;;;;5.88;2.67;;;23.80;52.00;;;;;;5005836;28;20533;-47
2022/07/28 05:53:49;;;;;;;4.85;1.98;;;23.80;52.90;;;;;;5005185;28;20022;-48
2022/07/28 05:56:14;;;;;;;4.15;2.22;;;23.80;52.30;;;;;;5002765;28;20153;-47
2022/07/28 05:58:40;;;;;;;4.32;1.70;;;23.90;52.10;;;;;;5005779;28;20025;-47
2022/07/28 06:01:06;;;;;;;6.85;2.40;;;23.90;52.00;;;;;;5005600;28;20386;-48
2022/07/28 06:03:33;;;;;;;7.93;2.25;;;23.90;52.20;;;;;;5005778;28;20044;-47
2022/07/28 06:05:59;;;;;;;4.13;1.90;;;23.90;52.10;;;;;;5004535;28;20715;-48
2022/07/28 06:08:25;;;;;;;4.55;2.00;;;23.90;52.00;;;;;;5005011;28;20042;-47
2022/07/28 06:11:10;;;;;;;4.95;1.65;;;23.90;52.00;;;;;;5004311;28;20107;-48
2022/07/28 06:13:37;;;;;;;7.18;1.67;;;23.90;51.40;;;;;;5002455;28;20017;-47
2022/07/28 06:16:04;;;;;;;5.25;2.00;;;24.00;51.40;;;;;;5004623;28;20061;-49
2022/07/28 06:18:30;;;;;;;7.50;2.67;;;24.00;50.80;;;;;;4999435;28;20053;-48
2022/07/28 06:20:56;;;;;;;5.25;2.30;;;24.00;51.60;;;;;;5002048;28;20026;-52
2022/07/28 06:23:25;;;;;;;4.88;2.05;;;24.00;51.30;;;;;;5001022;28;20654;-48
2022/07/28 06:25:51;;;;;;;4.63;2.08;;;24.00;51.00;;;;;;5003512;28;20026;-47
2022/07/28 06:28:17;;;;;;;5.90;2.33;;;24.00;50.80;;;;;;5004137;28;20498;-48
2022/07/28 06:30:44;;;;;;;5.40;2.38;;;24.00;50.60;;;;;;5004358;28;20881;-47
2022/07/28 06:33:10;;;;;;;4.65;2.05;;;24.00;49.50;;;;;;5003994;28;20038;-49
2022/07/28 06:35:36;;;;;;;4.38;2.30;;;24.00;50.60;;;;;;5000347;28;20105;-48
2022/07/28 06:38:01;;;;;;;4.97;1.95;;;24.00;50.70;;;;;;5004819;28;20112;-48
2022/07/28 06:40:27;;;;;;;4.03;1.88;;;24.00;50.70;;;;;;5000718;28;20985;-50
2022/07/28 06:42:53;;;;;;;3.80;2.05;;;24.00;50.70;;;;;;5004426;28;20033;-48
2022/07/28 06:45:19;;;;;;;5.55;2.45;;;24.00;50.90;;;;;;5002392;28;20096;-47
2022/07/28 06:47:45;;;;;;;5.82;3.03;;;24.00;50.70;;;;;;5002904;28;20088;-49
2022/07/28 06:50:11;;;;;;;4.20;2.33;;;24.10;51.60;;;;;;5001961;28;20038;-48
2022/07/28 06:52:37;;;;;;;5.32;2.05;;;24.10;50.60;;;;;;4997505;28;20057;-48
2022/07/28 06:55:04;;;;;;;6.07;2.50;;;24.10;50.70;;;;;;5002809;28;20029;-48
2022/07/28 06:57:32;;;;;;;5.13;2.20;;;24.10;50.10;;;;;;5000600;28;20083;-48
2022/07/28 06:59:58;;;;;;;4.55;2.13;;;24.20;50.10;;;;;;5002981;28;20026;-49
2022/07/28 07:02:24;;;;;;;3.97;1.90;;;24.20;50.20;;;;;;4999982;28;20085;-49
2022/07/28 07:04:51;;;;;;;5.22;2.70;;;24.20;50.20;;;;;;5002442;28;20486;-48
2022/07/28 07:07:17;;;;;;;6.15;2.17;;;24.30;50.20;;;;;;5019871;28;20030;-48
2022/07/28 07:09:43;;;;;;;4.13;2.10;;;24.30;50.00;;;;;;5005404;28;20708;-48
2022/07/28 07:12:08;;;;;;;5.45;2.33;;;24.30;50.30;;;;;;5003099;28;20073;-48
2022/07/28 07:14:34;;;;;;;5.03;2.67;;;24.30;50.10;;;;;;5004310;28;20064;-48
2022/07/28 07:17:00;;;;;;;3.75;1.63;;;24.40;50.20;;;;;;5004304;28;20035;-47
2022/07/28 07:19:25;;;;;;;3.83;1.98;;;24.40;50.20;;;;;;5004572;28;20064;-48
2022/07/28 07:21:51;;;;;;;4.43;2.17;;;24.40;50.30;;;;;;5004082;28;20026;-48
2022/07/28 07:24:17;;;;;;;4.15;2.00;;;24.40;49.80;;;;;;5004476;28;20026;-49
2022/07/28 07:26:43;;;;;;;3.80;2.03;;;24.40;49.90;;;;;;4997915;28;20033;-49
2022/07/28 07:29:09;;;;;;;8.90;3.47;;;24.50;50.00;;;;;;5001931;28;20878;-49
2022/07/28 07:31:35;;;;;;;8.40;2.85;;;24.50;50.30;;;;;;5002929;28;20033;-50
2022/07/28 07:34:02;;;;;;;7.82;3.20;;;24.50;50.40;;;;;;5002023;28;20052;-49
2022/07/28 07:36:28;;;;;;;10.82;4.75;;;24.60;50.60;;;;;;5001795;28;20033;-49
2022/07/28 07:38:53;;;;;;;14.70;5.57;;;24.60;50.40;;;;;;5003046;28;20053;-48
2022/07/28 07:41:19;;;;;;;16.92;6.25;;;24.60;50.30;;;;;;5001288;28;20070;-49
2022/07/28 07:43:45;;;;;;;16.05;6.22;;;24.60;50.50;;;;;;5002624;28;20028;-49
2022/07/28 07:46:11;;;;;;;13.82;5.35;;;24.60;50.60;;;;;;5001490;28;20018;-48
2022/07/28 07:48:37;;;;;;;24.67;6.68;;;24.70;50.60;;;;;;5002757;28;20834;-49
2022/07/28 07:51:03;;;;;;;14.25;4.60;;;24.70;51.40;;;;;;5000911;28;20701;-48
2022/07/28 07:53:29;;;;;;;10.13;4.22;;;24.70;50.90;;;;;;5001410;28;20061;-49
2022/07/28 07:55:55;;;;;;;10.55;3.67;;;24.80;50.30;;;;;;5000132;28;20670;-49
2022/07/28 07:58:20;;;;;;;8.43;3.28;;;24.80;50.00;;;;;;5001448;28;20080;-49
2022/07/28 08:00:46;;;;;;;8.23;3.17;;;24.80;49.80;;;;;;4999673;28;20025;-50
2022/07/28 08:03:14;;;;;;;5.03;2.50;;;24.80;49.80;;;;;;5001386;28;20025;-50
2022/07/28 08:05:40;;;;;;;5.00;2.58;;;24.80;49.60;;;;;;5002090;28;20026;-48
2022/07/28 08:08:05;;;;;;;5.63;2.38;;;24.80;49.90;;;;;;5005126;28;20026;-49
2022/07/28 08:10:35;;;;;;;4.45;2.25;;;24.80;50.20;;;;;;5002534;28;20034;-49
2022/07/28 08:13:02;;;;;;;5.15;2.80;;;24.80;50.30;;;;;;5001660;28;20034;-50
2022/07/28 08:15:28;;;;;;;5.38;2.67;;;24.90;50.40;;;;;;5002196;28;20113;-51
2022/07/28 08:17:53;;;;;;;5.22;2.85;;;24.90;50.60;;;;;;5001348;28;20157;-50
2022/07/28 08:20:19;;;;;;;4.30;2.17;;;24.90;50.30;;;;;;5002795;28;20707;-50
2022/07/28 08:22:53;;;;;;;3.83;2.05;;;24.90;51.30;;;;;;5001075;28;20029;-49
2022/07/28 08:25:19;;;;;;;5.75;2.30;;;24.90;50.80;;;;;;5001780;28;20030;-49
2022/07/28 08:27:45;;;;;;;4.43;2.13;;;25.00;50.60;;;;;;5001589;28;20151;-49
2022/07/28 08:30:13;;;;;;;9.27;4.07;;;25.00;51.20;;;;;;5001836;28;20034;-50
2022/07/28 08:32:40;;;;;;;7.25;3.90;;;25.00;56.60;;;;;;5002393;28;20021;-48
2022/07/28 08:35:06;;;;;;;5.75;3.70;;;25.10;55.50;;;;;;5000829;28;20022;-49
2022/07/28 08:37:32;;;;;;;3.95;2.35;;;25.10;54.40;;;;;;5002497;28;20025;-49
2022/07/28 08:39:58;;;;;;;4.32;2.80;;;25.20;53.90;;;;;;5001272;28;20034;-49
2022/07/28 08:42:37;;;;;;;4.55;2.40;;;25.20;53.00;;;;;;5015387;28;20044;-50
2022/07/28 08:45:07;;;;;;;6.43;3.40;;;25.20;53.10;;;;;;5001583;28;20026;-49
2022/07/28 08:47:36;;;;;;;10.55;4.95;;;25.20;53.40;;;;;;5002240;28;20026;-48
2022/07/28 08:50:02;;;;;;;9.45;5.35;;;25.20;53.20;;;;;;5000971;28;20029;-48
2022/07/28 08:52:29;;;;;;;12.88;5.40;;;25.20;53.80;;;;;;5001605;28;20432;-48
2022/07/28 08:54:56;;;;;;;6.10;3.90;;;25.30;53.00;;;;;;5002275;28;20022;-49
2022/07/28 08:57:27;;;;;;;5.43;3.72;;;25.20;49.70;;;;;;4999562;28;20556;-48
2022/07/28 08:59:53;;;;;;;6.60;3.30;;;25.10;50.20;;;;;;5002277;28;20033;-48
2022/07/28 09:02:19;;;;;;;4.60;2.67;;;25.10;51.20;;;;;;5002148;28;20073;-49
2022/07/28 09:04:46;;;;;;;4.72;2.78;;;25.10;51.70;;;;;;5001718;28;20018;-48
2022/07/28 09:07:12;;;;;;;5.45;2.90;;;25.10;51.90;;;;;;5002405;28;20025;-48
2022/07/28 09:09:38;;;;;;;7.63;3.78;;;25.00;51.60;;;;;;5002200;28;20033;-48
2022/07/28 09:12:05;;;;;;;5.07;2.72;;;25.10;51.70;;;;;;5003015;28;20104;-47
2022/07/28 09:14:32;;;;;;;4.53;2.80;;;25.00;51.30;;;;;;5002873;28;20038;-49
2022/07/28 09:17:01;;;;;;;5.50;2.88;;;25.00;51.50;;;;;;5001330;28;20144;-49
2022/07/28 09:19:28;;;;;;;5.00;2.80;;;25.00;51.30;;;;;;5002929;28;20056;-49
2022/07/28 09:21:57;;;;;;;3.83;2.58;;;25.00;51.50;;;;;;4998511;28;20494;-49
2022/07/28 09:24:31;;;;;;;3.60;2.00;;;25.00;51.50;;;;;;5001765;28;20045;-48
2022/07/28 09:27:06;;;;;;;7.70;3.85;;;25.00;51.60;;;;;;4989741;28;20030;-48
2022/07/28 09:29:32;;;;;;;6.65;3.58;;;25.10;51.40;;;;;;5001736;28;20590;-48
2022/07/28 09:31:58;;;;;;;12.13;4.53;;;25.10;51.40;;;;;;4982139;28;20108;-48
2022/07/28 09:34:24;;;;;;;9.93;4.70;;;25.10;51.40;;;;;;4987817;28;20069;-49
2022/07/28 09:36:50;;;;;;;7.47;3.80;;;25.10;51.70;;;;;;5001462;28;20038;-48
2022/07/28 09:39:33;;;;;;;8.27;3.72;;;25.10;51.70;;;;;;5007594;28;20038;-48
2022/07/28 09:41:59;;;;;;;7.03;3.88;;;25.10;51.40;;;;;;5001399;28;20068;-48
2022/07/28 09:44:26;;;;;;;5.78;3.30;;;25.10;51.60;;;;;;5001907;28;20468;-48
2022/07/28 09:46:52;;;;;;;5.25;3.15;;;25.20;51.50;;;;;;5002066;28;20029;-49
2022/07/28 09:49:18;;;;;;;4.53;3.00;;;25.20;51.60;;;;;;4996605;28;20041;-48
2022/07/28 09:52:02;;;;;;;10.57;4.05;;;25.20;51.50;;;;;;5002428;28;20565;-49
2022/07/28 09:54:27;;;;;;;5.18;3.25;;;25.20;51.60;;;;;;5001240;28;20037;-49
2022/07/28 09:56:53;;;;;;;4.90;2.92;;;25.20;51.40;;;;;;5001159;28;20045;-48
2022/07/28 09:59:20;;;;;;;5.05;3.20;;;25.20;51.30;;;;;;5001998;28;20025;-48
2022/07/28 10:02:01;;;;;;;4.32;2.97;;;25.20;51.30;;;;;;5002385;28;20474;-48
2022/07/28 10:04:30;;;;;;;5.43;3.13;;;25.30;51.20;;;;;;5001983;28;20034;-48
2022/07/28 10:07:12;;;;;;;7.20;3.38;;;25.30;51.10;;;;;;5001404;28;20418;-48
2022/07/28 10:09:39;;;;;;;7.57;3.23;;;25.30;51.00;;;;;;5007093;28;20038;-49
2022/07/28 10:12:19;;;;;;;5.32;3.35;;;25.30;50.90;;;;;;5017332;28;20092;-48
2022/07/28 10:14:50;;;;;;;6.70;3.60;;;25.30;50.80;;;;;;5002494;28;20033;-49
2022/07/28 10:17:29;;;;;;;5.78;3.78;;;25.30;50.60;;;;;;5001007;28;20026;-49
2022/07/28 10:19:57;;;;;;;8.35;4.05;;;25.40;50.50;;;;;;5004406;28;20156;-49
2022/07/28 10:22:27;;;;;;;6.20;4.03;;;25.40;50.20;;;;;;5005618;28;20031;-49
2022/07/28 10:24:53;;;;;;;5.65;3.88;;;25.40;50.50;;;;;;5006071;28;20025;-49
2022/07/28 10:27:23;;;;;;;5.75;4.28;;;25.40;50.70;;;;;;5005733;28;20064;-48
2022/07/28 10:29:59;;;;;;;5.70;3.88;;;25.40;50.90;;;;;;5006269;28;20619;-48
2022/07/28 10:32:28;;;;;;;5.30;3.60;;;25.40;51.00;;;;;;5005913;28;20037;-47
2022/07/28 10:35:01;;;;;;;5.32;3.30;;;25.40;50.50;;;;;;5005817;28;20033;-48
2022/07/28 10:37:29;;;;;;;4.53;3.80;;;25.40;50.60;;;;;;5005787;28;20025;-48
2022/07/28 10:40:05;;;;;;;4.82;3.40;;;25.50;50.50;;;;;;5006200;28;20030;-48
2022/07/28 10:42:31;;;;;;;4.68;3.38;;;25.50;50.30;;;;;;5005293;28;20041;-48
2022/07/28 10:44:58;;;;;;;4.18;3.20;;;25.50;50.50;;;;;;5005725;28;20030;-48
2022/07/28 10:47:26;;;;;;;7.38;3.90;;;25.50;50.30;;;;;;5005844;28;20030;-49
2022/07/28 10:49:52;;;;;;;5.57;3.70;;;25.50;50.40;;;;;;5005783;28;20109;-48
2022/07/28 10:52:19;;;;;;;6.22;3.50;;;25.50;50.40;;;;;;5005929;28;20467;-48
2022/07/28 10:55:15;;;;;;;5.32;3.60;;;25.50;50.50;;;;;;5004708;28;20113;-48
2022/07/28 10:57:56;;;;;;;4.65;3.30;;;25.50;50.30;;;;;;5005471;28;20038;-48
2022/07/28 11:00:24;;;;;;;4.70;3.65;;;25.50;49.80;;;;;;5037185;28;20025;-48
2022/07/28 11:02:54;;;;;;;4.68;3.40;;;25.50;49.90;;;;;;5005950;28;20022;-48
2022/07/28 11:05:38;;;;;;;4.82;3.28;;;25.50;49.80;;;;;;5005150;28;20080;-48
2022/07/28 11:08:08;;;;;;;4.68;3.55;;;25.50;49.80;;;;;;5011966;28;20060;-47
2022/07/28 11:10:51;;;;;;;5.10;3.08;;;25.50;49.00;;;;;;5023513;28;20029;-48
2022/07/28 11:13:34;;;;;;;4.45;3.17;;;25.60;49.50;;;;;;5008521;28;20066;-48
2022/07/28 11:16:12;;;;;;;5.45;3.60;;;25.60;48.80;;;;;;5004996;28;20602;-48
2022/07/28 11:19:17;;;;;;;5.05;3.45;;;25.60;48.40;;;;;;5005060;28;20026;-48
2022/07/28 11:24:55;;;;;;;4.38;3.25;;;25.60;47.50;;;;;;4998187;28;20517;-48
2022/07/28 11:27:42;;;;;;;4.55;3.40;;;25.60;48.30;;;;;;5004035;28;20042;-48
2022/07/28 11:30:31;;;;;;;4.18;2.90;;;25.60;48.50;;;;;;5036622;28;20026;-47
2022/07/28 11:33:05;;;;;;;4.72;2.80;;;25.60;48.20;;;;;;5003264;28;20038;-47
2022/07/28 11:35:39;;;;;;;4.10;3.08;;;25.60;47.00;;;;;;5003596;28;20576;-48
2022/07/28 11:38:07;;;;;;;4.65;3.08;;;25.60;47.50;;;;;;5011058;28;20105;-47
2022/07/28 11:40:44;;;;;;;3.88;3.05;;;25.70;46.40;;;;;;5005006;28;20037;-47
2022/07/28 11:43:29;;;;;;;5.72;2.83;;;25.70;47.00;;;;;;5004395;28;20394;-47
2022/07/28 11:46:01;;;;;;;4.53;3.00;;;25.70;46.80;;;;;;5004555;28;20118;-48
2022/07/28 11:48:28;;;;;;;5.10;3.10;;;25.70;47.20;;;;;;5004461;28;20053;-48
2022/07/28 11:51:03;;;;;;;4.90;2.70;;;25.70;47.80;;;;;;5020118;28;20287;-48
2022/07/28 11:53:41;;;;;;;4.68;3.10;;;25.70;45.30;;;;;;5004460;28;20030;-47
2022/07/28 11:56:25;;;;;;;3.80;2.75;;;25.80;46.10;;;;;;5004130;28;20635;-48
2022/07/28 11:58:59;;;;;;;3.80;2.42;;;25.80;46.30;;;;;;4983393;28;20621;-48
2022/07/28 12:01:25;;;;;;;3.67;2.67;;;25.80;46.40;;;;;;4984919;28;20109;-47
2022/07/28 12:03:53;;;;;;;5.72;3.20;;;25.80;44.90;;;;;;4984866;28;20371;-48
2022/07/28 12:06:21;;;;;;;3.60;2.67;;;25.80;45.80;;;;;;4984151;28;20046;-48
2022/07/28 12:09:01;;;;;;;3.95;3.03;;;25.90;46.50;;;;;;5008210;28;20022;-48
2022/07/28 12:11:32;;;;;;;4.00;3.10;;;25.90;46.50;;;;;;5017938;28;20053;-48
2022/07/28 12:14:15;;;;;;;4.22;2.58;;;25.90;46.50;;;;;;4998828;28;20029;-48
2022/07/28 12:16:43;;;;;;;4.22;3.03;;;26.00;46.90;;;;;;4993153;28;20494;-47
2022/07/28 12:19:13;;;;;;;4.88;3.10;;;26.00;45.90;;;;;;5001864;28;20104;-47
2022/07/28 12:21:39;;;;;;;5.82;2.88;;;26.00;45.30;;;;;;5000519;28;20033;-47
2022/07/28 12:24:07;;;;;;;5.40;2.95;;;26.00;45.70;;;;;;4998524;28;20030;-48
2022/07/28 12:26:34;;;;;;;4.20;2.85;;;26.00;47.00;;;;;;5002656;28;20018;-47
2022/07/28 12:29:00;;;;;;;3.50;2.60;;;26.10;47.30;;;;;;5003161;28;20164;-47
2022/07/28 12:31:31;;;;;;;4.07;2.83;;;26.10;46.30;;;;;;5003703;28;20097;-47
2022/07/28 12:34:01;;;;;;;4.40;2.40;;;26.10;45.30;;;;;;5003287;28;20109;-48
2022/07/28 12:36:28;;;;;;;5.22;2.78;;;26.10;45.70;;;;;;5002209;28;20551;-47
2022/07/28 12:38:54;;;;;;;4.50;2.85;;;26.10;44.90;;;;;;5015824;28;20033;-48
2022/07/28 12:41:21;;;;;;;4.72;2.30;;;26.20;44.60;;;;;;5023028;28;20107;-47
2022/07/28 12:43:51;;;;;;;4.60;2.72;;;26.30;44.70;;;;;;5003035;28;20108;-48
2022/07/28 12:46:25;;;;;;;4.28;2.60;;;26.20;43.90;;;;;;4998022;28;20042;-47
2022/07/28 12:48:52;;;;;;;2.95;2.03;;;26.30;44.00;;;;;;5000853;28;20751;-48
2022/07/28 12:51:37;;;;;;;3.83;2.30;;;26.30;44.00;;;;;;5001350;28;20030;-47
2022/07/28 12:54:06;;;;;;;3.67;2.42;;;26.30;44.30;;;;;;5003342;28;20022;-48
2022/07/28 12:56:50;;;;;;;3.33;2.53;;;26.30;43.40;;;;;;5002413;28;20104;-47
2022/07/28 12:59:18;;;;;;;3.67;2.35;;;26.40;44.60;;;;;;5000966;28;20054;-47